Latest Weather Observations for Mardie

IDW60801

Issued at 12:33 pm WST Saturday 29 February 2020 (issued every 10 minutes, with the page automatically refreshed every 10 minutes)

About weather observations | Map of weather stations | Latest weather observations for WA | Other Formats
Station Details ID: 005008 Name: MARDIE Lat: -21.19 Lon: 115.98 Height: 11.0 m
Data from the previous 72 hours. | See also: Recent months at Mardie
Date/Time
WST
Temp
°C
App
Temp
°C
Dew
Point
°C
Rel
Hum
%
Delta-T
°C
Wind Press
QNH
hPa
Press
MSL
hPa
Rain since
9am
mm
Dir  Spd
km/h
Gust
km/h
Spd
kts
Gust
kts
29/12:30pm 38.5 39.9 22.5 39 11.1 WNW 19 22 10 12 1002.6 1002.5 0.0
29/12:00pm 39.2 41.3 23.1 39 11.3 NW 17 24 9 13 1003.0 1002.9 0.0
29/11:30am 38.2 40.0 22.6 40 10.8 WNW 17 22 9 12 1003.4 1003.3 0.0
29/11:00am 39.0 41.7 22.1 37 11.7 W 11 22 6 12 1003.7 1003.6 0.0
29/10:30am 38.5 40.2 19.4 33 12.8 SSW 9 15 5 8 1004.0 1003.9 0.0
29/10:00am 36.7 39.5 20.9 39 10.7 SSW 7 13 4 7 1004.3 1004.2 0.0
29/09:30am 35.3 38.3 21.9 45 9.2 SSW 9 13 5 7 1004.5 1004.4 0.0
29/09:00am 33.6 37.0 23.3 55 7.2 S 11 15 6 8 1004.7 1004.6 0.0
29/08:30am 32.2 36.0 23.4 59 6.1 S 9 13 5 7 1004.8 1004.7 0.0
29/08:00am 30.8 34.4 23.7 66 4.9 SSW 11 15 6 8 1004.8 1004.7 0.0
29/07:30am 29.8 34.4 24.2 72 3.9 W 7 11 4 6 1004.7 1004.6 0.0
29/07:00am 28.6 35.9 27.9 96 0.5 W 6 9 3 5 1004.6 1004.5 0.0
29/06:30am 27.2 34.7 27.2 100 0.0 W 2 4 1 2 1004.6 1004.5 0.0
29/06:00am 27.1 34.9 27.1 100 0.0 CALM 0 0 0 0 1004.2 1004.1 0.0
29/05:30am 27.4 35.2 27.1 98 0.2 CALM 0 0 0 0 1003.9 1003.8 0.0
29/05:00am 27.8 36.1 27.8 100 0.0 CALM 0 0 0 0 1003.8 1003.7 0.0
29/04:30am 27.9 36.3 27.9 100 0.0 CALM 0 0 0 0 1003.9 1003.8 0.0
29/04:00am 28.0 36.5 28.0 100 0.0 CALM 0 0 0 0 1004.0 1003.9 0.0
29/03:30am 28.1 36.1 27.4 96 0.5 CALM 0 0 0 0 1004.1 1004.0 0.0
29/03:00am 28.2 36.5 27.7 97 0.4 CALM 0 4 0 2 1004.0 1003.9 0.0
29/02:30am 28.3 37.0 28.3 100 0.0 CALM 0 0 0 0 1004.3 1004.2 0.0
29/02:00am 28.3 36.8 28.0 98 0.2 CALM 0 0 0 0 1004.6 1004.5 0.0
29/01:30am 28.2 36.6 27.9 98 0.2 CALM 0 0 0 0 1004.8 1004.7 0.0
29/01:00am 28.3 36.9 28.1 99 0.1 CALM 0 2 0 1 1005.0 1004.9 0.0
29/12:30am 28.4 36.3 28.2 99 0.1 W 4 6 2 3 1005.0 1004.9 0.0
29/12:00am 28.6 36.2 28.6 100 0.0 W 7 11 4 6 1005.3 1005.2 0.0
 
Date/Time
WST
Temp
°C
App
Temp
°C
Dew
Point
°C
Rel
Hum
%
Delta-T
°C
Wind Press
QNH
hPa
Press
MSL
hPa
Rain since
9am
mm
Dir  Spd
km/h
Gust
km/h
Spd
kts
Gust
kts
28/11:30pm 28.6 36.0 28.4 99 0.1 W 7 9 4 5 1005.4 1005.3 0.0
28/11:00pm 28.7 35.8 28.5 99 0.1 W 9 13 5 7 1005.6 1005.5 0.0
28/10:30pm 28.8 36.0 28.6 99 0.1 WNW 9 13 5 7 1005.5 1005.4 0.0
28/10:00pm 28.8 36.2 28.8 100 0.0 WNW 9 9 5 5 1005.6 1005.5 0.0
28/09:30pm 28.9 36.3 28.9 100 0.0 WNW 9 13 5 7 1005.5 1005.4 0.0
28/09:00pm 28.9 36.0 28.9 100 0.0 NW 11 15 6 8 1005.3 1005.2 0.0
28/08:30pm 29.1 36.3 29.1 100 0.0 WNW 11 15 6 8 1004.9 1004.8 0.0
28/08:00pm 29.1 35.7 28.8 98 0.2 WNW 13 19 7 10 1004.4 1004.3 0.0
28/07:30pm 29.6 35.8 28.2 92 1.0 NW 13 19 7 10 1004.1 1004.0 0.0
28/07:00pm 30.0 35.1 27.2 85 2.0 WNW 15 20 8 11 1003.8 1003.7 0.0
28/06:30pm 30.6 34.0 25.9 76 3.3 WNW 19 26 10 14 1003.6 1003.5 0.0
28/06:00pm 31.9 34.4 24.7 65 5.1 WNW 20 26 11 14 1003.0 1002.9 0.0
28/05:30pm 32.5 34.6 23.7 59 6.1 NW 19 28 10 15 1002.9 1002.8 0.0
28/05:00pm 33.2 35.1 23.5 56 6.8 WNW 19 26 10 14 1002.9 1002.8 0.0
28/04:30pm 33.3 35.1 23.3 55 6.9 WNW 19 22 10 12 1002.9 1002.8 0.0
28/04:00pm 34.1 36.6 23.8 55 7.2 NW 17 24 9 13 1003.3 1003.2 0.0
28/03:30pm 33.5 36.0 23.2 54 7.1 NW 15 22 8 12 1003.6 1003.5 0.0
28/03:00pm 34.0 36.7 23.4 54 7.4 NW 15 22 8 12 1003.8 1003.7 0.0
28/02:30pm 34.4 37.4 24.0 54 7.3 NW 15 26 8 14 1003.9 1003.8 0.0
28/02:00pm 33.6 36.2 23.3 55 7.2 NW 15 24 8 13 1004.2 1004.1 0.0
28/01:30pm 34.0 35.7 22.4 50 8.0 NW 17 22 9 12 1004.5 1004.4 0.0
28/01:00pm 34.3 36.3 23.0 51 7.8 NW 17 22 9 12 1004.8 1004.7 0.0
28/12:30pm 33.7 36.3 24.0 57 6.8 NW 17 28 9 15 1005.3 1005.2 0.0
28/12:00pm 34.1 37.7 23.8 55 7.2 NNW 11 19 6 10 1005.7 1005.6 0.0
28/11:30am 33.5 36.8 23.2 54 7.1 N 11 19 6 10 1006.0 1005.9 0.0
28/11:00am 33.3 37.3 25.0 61 5.9 NNW 13 20 7 11 1006.2 1006.1 0.0
28/10:30am 32.3 36.9 24.1 62 5.7 N 7 15 4 8 1006.5 1006.4 0.0
28/10:00am 32.1 37.4 24.9 65 5.1 N 6 9 3 5 1006.7 1006.6 0.0
28/09:30am 31.6 36.5 24.7 67 4.8 N 7 11 4 6 1006.6 1006.5 0.0
28/09:00am 31.4 37.5 25.0 69 4.5 NNE 2 7 1 4 1006.7 1006.6 0.0
28/08:30am 29.8 35.9 26.2 81 2.6 N 6 9 3 5 1006.8 1006.7 0.0
28/08:00am 29.0 36.1 27.9 94 0.8 NNE 7 13 4 7 1006.6 1006.5 0.0
28/07:30am 28.6 35.9 27.9 96 0.5 NW 6 7 3 4 1006.4 1006.3 0.0
28/07:00am 27.7 35.2 27.7 100 0.0 NW 4 6 2 3 1006.5 1006.4 0.0
28/06:30am 26.9 33.8 26.9 100 0.0 NW 4 6 2 3 1006.2 1006.1 0.0
28/06:00am 27.0 34.0 27.0 100 0.0 NW 4 6 2 3 1006.3 1006.2 0.0
28/05:30am 27.1 34.9 27.1 100 0.0 CALM 0 0 0 0 1006.1 1006.0 0.0
28/05:00am 27.1 34.9 27.1 100 0.0 CALM 0 4 0 2 1005.8 1005.7 0.0
28/04:30am 27.3 35.3 27.3 100 0.0 CALM 0 0 0 0 1005.6 1005.5 0.0
28/04:00am 27.6 34.7 27.6 100 0.0 NW 6 7 3 4 1005.6 1005.5 0.0
28/03:30am 27.9 35.9 27.9 100 0.0 NW 2 6 1 3 1005.6 1005.5 0.0
28/03:00am 27.7 35.6 27.7 100 0.0 NW 2 6 1 3 1005.6 1005.5 0.0
28/02:30am 27.8 36.1 27.8 100 0.0 CALM 0 2 0 1 1005.9 1005.8 0.0
28/02:00am 27.7 36.0 27.7 100 0.0 CALM 0 0 0 0 1006.2 1006.1 0.0
28/01:30am 27.4 34.7 27.4 100 0.0 NW 4 6 2 3 1006.4 1006.3 0.0
28/01:00am 27.8 36.1 27.8 100 0.0 CALM 0 2 0 1 1006.5 1006.4 0.0
28/12:30am 27.8 36.1 27.8 100 0.0 CALM 0 0 0 0 1006.7 1006.6 0.0
28/12:00am 28.0 36.5 28.0 100 0.0 CALM 0 0 0 0 1006.9 1006.8 0.0
 
Date/Time
WST
Temp
°C
App
Temp
°C
Dew
Point
°C
Rel
Hum
%
Delta-T
°C
Wind Press
QNH
hPa
Press
MSL
hPa
Rain since
9am
mm
Dir  Spd
km/h
Gust
km/h
Spd
kts
Gust
kts
27/11:30pm 28.1 36.7 28.1 100 0.0 CALM 0 0 0 0 1007.2 1007.1 0.0
27/11:00pm 28.2 36.1 28.2 100 0.0 NW 4 6 2 3 1006.8 1006.7 0.0
27/10:30pm 28.4 35.9 28.2 99 0.1 NW 6 9 3 5 1006.8 1006.7 0.0
27/10:00pm 28.7 36.2 28.5 99 0.1 WNW 7 9 4 5 1006.9 1006.8 0.0
27/09:30pm 28.8 35.8 28.8 100 0.0 WNW 11 13 6 7 1006.9 1006.8 0.0
27/09:00pm 28.8 36.2 28.8 100 0.0 WNW 9 13 5 7 1006.8 1006.7 0.0
27/08:30pm 29.1 36.3 28.6 97 0.4 NW 9 17 5 9 1006.6 1006.5 0.0
27/08:00pm 28.9 34.4 26.7 88 1.6 NNW 11 15 6 8 1006.2 1006.1 0.0
27/07:30pm 29.3 34.0 25.5 80 2.7 NNW 11 13 6 7 1006.0 1005.9 0.0
27/07:00pm 29.9 33.9 25.0 75 3.4 NW 13 19 7 10 1005.6 1005.5 0.0
27/06:30pm 30.5 33.4 24.4 70 4.3 NW 17 24 9 13 1005.4 1005.3 0.0
27/06:00pm 30.9 33.0 23.8 66 4.9 NNW 19 26 10 14 1005.1 1005.0 0.0
27/05:30pm 31.9 34.0 23.7 62 5.7 NNW 19 28 10 15 1004.5 1004.4 0.0
27/05:00pm 32.4 34.5 23.1 58 6.4 NNW 17 28 9 15 1004.3 1004.2 0.0
27/04:30pm 32.9 34.6 22.4 54 7.2 NNW 17 24 9 13 1004.5 1004.4 0.0
27/04:00pm 32.8 33.9 22.3 54 7.2 NNW 20 28 11 15 1004.7 1004.6 0.0
27/03:30pm 33.1 35.2 23.7 57 6.5 NNW 19 28 10 15 1004.9 1004.8 0.0
27/03:00pm 33.9 35.6 23.0 53 7.6 NNW 19 30 10 16 1004.9 1004.8 0.0
27/02:30pm 33.3 34.6 22.7 53 7.3 NNW 20 28 11 15 1005.1 1005.0 0.0
27/02:00pm 34.0 36.1 22.4 50 8.0 NNW 15 24 8 13 1005.0 1004.9 0.0
27/01:30pm 33.3 35.2 22.7 53 7.3 NNW 17 28 9 15 1005.1 1005.0 0.0
27/01:00pm 33.0 34.9 22.1 52 7.5 N 15 20 8 11 1005.4 1005.3 0.0
27/12:30pm 33.1 36.1 24.0 59 6.4 NNW 15 20 8 11 1005.6 1005.5 0.0
27/12:00pm 32.9 36.5 23.8 58 6.4 NNW 11 19 6 10 1006.0 1005.9 0.0
27/11:30am 32.5 36.5 23.7 59 6.1 NNW 9 15 5 8 1006.3 1006.2 0.0
27/11:00am 32.1 35.7 23.1 59 6.2 N 9 15 5 8 1006.4 1006.3 0.0
27/10:30am 31.7 35.8 24.6 66 5.0 N 11 19 6 10 1006.7 1006.6 0.0
27/10:00am 31.5 35.1 24.4 66 5.0 N 13 22 7 12 1006.9 1006.8 0.0
27/09:30am 31.8 34.7 23.9 63 5.5 N 15 24 8 13 1007.0 1006.9 0.0
27/09:00am 31.5 35.5 25.1 69 4.5 N 13 20 7 11 1006.9 1006.8 0.0
27/08:30am 30.6 35.9 26.5 79 2.9 NNE 11 17 6 9 1006.8 1006.7 0.0
27/08:00am 29.8 37.2 28.9 95 0.7 NNE 9 13 5 7 1006.5 1006.4 0.0
27/07:30am 28.9 36.3 28.9 100 0.0 NNE 9 13 5 7 1006.3 1006.2 0.0
27/07:00am 28.2 35.7 28.2 100 0.0 N 6 6 3 3 1006.0 1005.9 0.0
27/06:30am 27.5 34.9 27.5 100 0.0 N 4 6 2 3 1005.8 1005.7 0.0
27/06:00am 27.6 35.0 27.6 100 0.0 N 4 6 2 3 1005.7 1005.6 0.0
27/05:30am 27.6 34.7 27.6 100 0.0 N 6 6 3 3 1005.5 1005.4 0.0
27/05:00am 27.4 35.4 27.4 100 0.0 CALM 0 0 0 0 1005.3 1005.2 0.0
27/04:30am 27.2 35.1 27.2 100 0.0 CALM 0 0 0 0 1005.1 1005.0 0.0
27/04:00am 27.1 34.9 27.1 100 0.0 CALM 0 0 0 0 1005.1 1005.0 0.0
27/03:30am 27.5 35.6 27.5 100 0.0 CALM 0 0 0 0 1005.1 1005.0 0.0
27/03:00am 27.5 35.6 27.5 100 0.0 CALM 0 0 0 0 1005.1 1005.0 0.0
27/02:30am 27.8 36.1 27.8 100 0.0 CALM 0 0 0 0 1005.2 1005.1 0.0
27/02:00am 27.8 36.1 27.8 100 0.0 CALM 0 0 0 0 1005.4 1005.3 0.0
27/01:30am 27.6 35.8 27.6 100 0.0 CALM 0 0 0 0 1005.7 1005.6 0.0
27/01:00am 27.8 36.1 27.8 100 0.0 CALM 0 4 0 2 1006.0 1005.9 0.0
27/12:30am 28.2 35.5 28.2 100 0.0 N 7 9 4 5 1006.0 1005.9 0.0
27/12:00am 28.4 35.5 28.4 100 0.0 N 9 13 5 7 1006.1 1006.0 0.0
 
Date/Time
WST
Temp
°C
App
Temp
°C
Dew
Point
°C
Rel
Hum
%
Delta-T
°C
Wind Press
QNH
hPa
Press
MSL
hPa
Rain since
9am
mm
Dir  Spd
km/h
Gust
km/h
Spd
kts
Gust
kts
26/11:30pm 28.4 37.2 28.4 100 0.0 CALM 0 0 0 0 1006.3 1006.2 0.0
26/11:00pm 28.8 36.8 27.4 92 1.0 CALM 0 0 0 0 1006.5 1006.4 0.0
26/10:30pm 28.6 36.9 27.7 95 0.7 CALM 0 0 0 0 1006.5 1006.4 0.0
26/10:00pm 28.9 36.6 26.9 89 1.4 CALM 0 0 0 0 1006.4 1006.3 0.0
26/09:30pm 29.0 36.2 26.2 85 2.0 CALM 0 0 0 0 1006.5 1006.4 0.0
26/09:00pm 29.3 36.1 25.5 80 2.7 CALM 0 0 0 0 1006.2 1006.1 0.0
26/08:30pm 29.5 36.5 25.9 81 2.6 CALM 0 4 0 2 1006.0 1005.9 0.0
26/08:00pm 29.5 36.7 26.1 82 2.4 CALM 0 0 0 0 1005.8 1005.7 0.0
26/07:30pm 29.6 35.6 26.0 81 2.6 NW 6 9 3 5 1005.5 1005.4 0.0
26/07:00pm 29.9 35.0 25.6 78 3.1 NNW 9 17 5 9 1005.0 1004.9 0.0
26/06:30pm 30.3 34.5 25.4 75 3.5 NNW 13 19 7 10 1004.7 1004.6 0.0
26/06:00pm 31.1 34.2 24.2 66 4.8 NNW 15 20 8 11 1004.7 1004.6 0.0
26/05:30pm 32.1 34.3 23.3 59 6.1 NNW 17 24 9 13 1004.3 1004.2 0.0
26/05:00pm 33.1 34.1 22.2 52 7.5 NW 20 24 11 13 1003.8 1003.7 0.0
26/04:30pm 34.7 34.9 20.6 43 9.5 NNW 20 28 11 15 1003.9 1003.8 0.0
26/04:00pm 34.8 34.5 19.2 39 10.3 NNW 19 28 10 15 1003.9 1003.8 0.0
26/03:30pm 36.2 36.1 19.6 37 11.0 NNW 19 26 10 14 1003.8 1003.7 0.0
26/03:00pm 36.2 35.9 19.2 37 11.3 NNW 19 32 10 17 1003.9 1003.8 0.0
26/02:30pm 37.1 37.7 19.5 35 11.7 NNW 15 22 8 12 1004.1 1004.0 0.0
26/02:00pm 37.9 38.4 19.3 33 12.4 N 15 24 8 13 1004.2 1004.1 0.0
26/01:30pm 38.2 39.8 20.0 34 12.2 NNW 11 19 6 10 1004.3 1004.2 0.0
26/01:00pm 38.2 40.2 20.0 34 12.3 NNW 9 22 5 12 1004.6 1004.5 0.0

Other formats

Comma delimited format used in spreadsheet applications
http://www.bom.gov.au/fwo/IDW60801/IDW60801.94306.axf

JavaScript Object Notation format (JSON) in row-major order
http://www.bom.gov.au/fwo/IDW60801/IDW60801.94306.json

Data quality

Most of these data are generated automatically and are frequently updated. Quality checks on data are not normally performed. It is possible for incorrect values to appear. Refer to information at About Latest Weather Observations and please check the disclaimer before using these data.